Aviation Digital Data Service (ADDS)

Output produced by METARs form (2239 UTC 24 April 2014)
found at http://www.aviationweather.gov/adds/metars/
 
KSAV 242153Z 11011KT 10SM BKN075 BKN090 24/16 A2998 RMK AO2 SLP151 T02390156